Time;durP1;ratioP1;P1;durP2;ratioP2;P2;SDS_P1;SDS_P2;PMS_P1;PMS_P2;Temp;Humidity;BMP_temperature;BMP_pressure;BME280_temperature;BME280_humidity;BME280_pressure;Samples;Min_cycle;Max_cycle;Signal;HPM_P1;HPM_P2
2024/01/11 00:00:07;;;;;;;142.60;55.57;;;-3.50;99.90;;;;;;5018920;28;20253;-78
2024/01/11 00:02:36;;;;;;;152.07;56.13;;;-3.50;99.90;;;;;;5021540;28;20305;-77
2024/01/11 00:05:06;;;;;;;141.10;54.87;;;-3.50;99.90;;;;;;5033898;28;20712;-78
2024/01/11 00:07:35;;;;;;;144.10;55.13;;;-3.40;99.90;;;;;;5043536;28;20326;-77
2024/01/11 00:10:04;;;;;;;139.77;54.97;;;-3.50;99.90;;;;;;5044469;28;20376;-76
2024/01/11 00:12:32;;;;;;;137.67;55.33;;;-3.50;99.90;;;;;;5017054;28;20222;-77
2024/01/11 00:15:01;;;;;;;138.93;53.93;;;-3.50;99.90;;;;;;5035225;28;20223;-79
2024/01/11 00:17:31;;;;;;;136.73;53.60;;;-3.50;99.90;;;;;;5025754;28;20357;-75
2024/01/11 00:19:59;;;;;;;139.23;53.97;;;-3.50;99.90;;;;;;5045242;28;20328;-78
2024/01/11 00:22:28;;;;;;;138.47;53.90;;;-3.40;99.90;;;;;;5021623;28;20228;-80
2024/01/11 00:24:56;;;;;;;128.10;52.40;;;-3.40;99.90;;;;;;5024894;28;20725;-79
2024/01/11 00:27:25;;;;;;;143.60;53.93;;;-3.40;99.90;;;;;;5027881;28;20222;-82
2024/01/11 00:29:54;;;;;;;131.43;53.50;;;-3.40;99.90;;;;;;5026143;28;20225;-82
2024/01/11 00:32:23;;;;;;;136.10;52.73;;;-3.40;99.90;;;;;;5021200;28;20247;-82
2024/01/11 00:34:53;;;;;;;129.60;51.00;;;-3.40;99.90;;;;;;5026758;28;20317;-84
2024/01/11 00:37:22;;;;;;;135.40;51.13;;;-3.50;99.90;;;;;;5027636;28;20226;-81
2024/01/11 00:39:50;;;;;;;127.33;51.07;;;-3.40;99.90;;;;;;5058471;28;20839;-80
2024/01/11 00:42:19;;;;;;;132.77;51.53;;;-3.50;99.90;;;;;;5036738;28;20224;-79
2024/01/11 00:44:47;;;;;;;130.70;49.80;;;-3.40;99.90;;;;;;5038306;28;20514;-79
2024/01/11 00:47:16;;;;;;;140.07;52.53;;;-3.50;99.90;;;;;;5042925;28;20225;-80
2024/01/11 00:49:45;;;;;;;132.40;52.13;;;-3.40;99.90;;;;;;5040443;28;20704;-79
2024/01/11 00:52:15;;;;;;;127.53;50.20;;;-3.40;99.90;;;;;;5023088;28;20296;-79
2024/01/11 00:54:44;;;;;;;130.47;50.77;;;-3.40;99.90;;;;;;5033325;28;20720;-79
2024/01/11 00:57:12;;;;;;;129.43;51.10;;;-3.40;99.90;;;;;;5020964;28;20229;-79
2024/01/11 00:59:41;;;;;;;125.63;50.33;;;-3.30;99.90;;;;;;5021305;28;20277;-79
2024/01/11 01:02:10;;;;;;;131.60;51.60;;;-3.30;99.90;;;;;;5038883;28;20223;-79
2024/01/11 01:04:39;;;;;;;128.57;50.37;;;-3.30;99.90;;;;;;5025912;28;20284;-78
2024/01/11 01:07:07;;;;;;;130.20;50.67;;;-3.30;99.90;;;;;;5024747;28;20226;-80
2024/01/11 01:09:37;;;;;;;130.63;50.17;;;-3.20;99.90;;;;;;5022605;28;20393;-78
2024/01/11 01:12:07;;;;;;;131.57;50.90;;;-3.30;99.90;;;;;;5022163;28;20232;-76
2024/01/11 01:14:36;;;;;;;138.93;52.13;;;-3.30;99.90;;;;;;5031246;28;20594;-77
2024/01/11 01:17:05;;;;;;;127.43;51.40;;;-3.20;99.90;;;;;;5035634;28;20226;-78
2024/01/11 01:19:34;;;;;;;135.90;50.80;;;-3.30;99.90;;;;;;5023616;28;20223;-80
2024/01/11 01:22:02;;;;;;;129.40;50.73;;;-3.30;99.90;;;;;;5041151;28;20227;-79
2024/01/11 01:24:32;;;;;;;126.37;50.57;;;-3.30;99.90;;;;;;5036588;28;20250;-78
2024/01/11 01:27:02;;;;;;;127.60;51.07;;;-3.30;99.90;;;;;;5020477;28;20232;-77
2024/01/11 01:29:31;;;;;;;125.10;49.10;;;-3.20;99.90;;;;;;5022640;28;20231;-76
2024/01/11 01:31:59;;;;;;;123.33;49.83;;;-3.40;99.90;;;;;;5020036;28;20234;-77
2024/01/11 01:34:28;;;;;;;123.07;49.27;;;-3.30;99.90;;;;;;5015429;28;20228;-76
2024/01/11 01:36:57;;;;;;;120.47;47.43;;;-3.30;99.90;;;;;;5023281;28;20234;-78
2024/01/11 01:39:25;;;;;;;119.20;47.03;;;-3.40;99.90;;;;;;5022460;28;20288;-79
2024/01/11 01:41:53;;;;;;;117.63;46.00;;;-3.30;99.90;;;;;;5017975;28;20733;-77
2024/01/11 01:44:23;;;;;;;120.03;48.13;;;-3.20;99.90;;;;;;5024440;28;20222;-77
2024/01/11 01:46:53;;;;;;;118.80;48.10;;;-3.20;99.90;;;;;;5030689;28;20231;-76
2024/01/11 01:49:22;;;;;;;120.40;47.33;;;-3.20;99.90;;;;;;5024862;28;20251;-75
2024/01/11 01:51:53;;;;;;;120.13;46.90;;;-3.10;99.90;;;;;;5025311;28;20242;-76
2024/01/11 01:54:23;;;;;;;114.47;47.60;;;-3.10;99.90;;;;;;5025352;28;20238;-77
2024/01/11 01:56:52;;;;;;;120.00;46.33;;;-3.20;99.90;;;;;;5022927;28;20252;-77
2024/01/11 01:59:21;;;;;;;113.80;46.17;;;-3.20;99.90;;;;;;5025751;28;20410;-79
2024/01/11 02:01:51;;;;;;;115.50;46.77;;;-3.20;99.90;;;;;;5050583;28;20341;-80
2024/01/11 02:04:22;;;;;;;117.07;45.73;;;-3.10;99.90;;;;;;5017333;28;20411;-79
2024/01/11 02:06:52;;;;;;;110.77;45.67;;;-3.10;99.90;;;;;;5022293;28;20234;-79
2024/01/11 02:09:21;;;;;;;113.00;43.77;;;-3.10;99.90;;;;;;5041079;28;20257;-79
2024/01/11 02:11:50;;;;;;;114.17;46.27;;;-3.20;99.90;;;;;;5025101;28;20226;-78
2024/01/11 02:14:19;;;;;;;120.20;45.33;;;-3.20;99.90;;;;;;5024972;28;20876;-77
2024/01/11 02:16:48;;;;;;;113.47;45.47;;;-3.20;99.90;;;;;;5017445;28;20219;-79
2024/01/11 02:19:20;;;;;;;108.37;43.50;;;-3.10;99.90;;;;;;5019617;28;20226;-79
2024/01/11 02:21:54;;;;;;;101.13;43.47;;;-3.10;99.90;;;;;;5018671;28;20253;-81
2024/01/11 02:24:24;;;;;;;100.50;41.80;;;-3.00;99.90;;;;;;5023805;28;20572;-80
2024/01/11 02:27:00;;;;;;;104.50;41.03;;;-3.20;99.90;;;;;;5018442;28;20281;-76
2024/01/11 02:29:29;;;;;;;94.97;39.47;;;-3.30;99.90;;;;;;5021021;28;20219;-77
2024/01/11 02:31:59;;;;;;;88.27;39.13;;;-3.20;99.90;;;;;;5022437;28;20251;-77
2024/01/11 02:34:29;;;;;;;92.80;36.47;;;-3.30;99.90;;;;;;5018365;28;20231;-77
2024/01/11 02:36:58;;;;;;;96.07;38.70;;;-3.30;99.90;;;;;;5020473;28;20222;-75
2024/01/11 02:39:28;;;;;;;85.57;36.17;;;-3.30;99.90;;;;;;5021595;28;20839;-76
2024/01/11 02:41:57;;;;;;;82.80;35.80;;;-3.20;99.90;;;;;;5021907;28;20304;-76
2024/01/11 02:44:26;;;;;;;87.43;35.63;;;-3.20;99.90;;;;;;5020056;28;20311;-77
2024/01/11 02:46:54;;;;;;;83.47;35.40;;;-3.20;99.90;;;;;;5019434;28;20414;-77
2024/01/11 02:49:23;;;;;;;89.83;35.90;;;-3.30;99.90;;;;;;5039719;28;20724;-79
2024/01/11 02:51:52;;;;;;;83.87;35.77;;;-3.20;99.90;;;;;;5049855;28;20230;-80
2024/01/11 02:54:20;;;;;;;84.67;35.27;;;-3.20;99.90;;;;;;5054153;28;20238;-79
2024/01/11 02:56:50;;;;;;;83.53;35.17;;;-3.10;99.90;;;;;;5019489;28;20233;-78
2024/01/11 02:59:18;;;;;;;77.40;32.33;;;-3.20;99.90;;;;;;5031810;28;20222;-77
2024/01/11 03:01:47;;;;;;;87.60;33.97;;;-3.20;99.90;;;;;;5019347;28;20419;-77
2024/01/11 03:04:15;;;;;;;83.10;33.60;;;-3.20;99.90;;;;;;5021259;28;20547;-79
2024/01/11 03:06:44;;;;;;;84.03;33.53;;;-3.10;99.90;;;;;;5019947;28;20228;-78
2024/01/11 03:09:12;;;;;;;89.93;34.23;;;-3.10;99.90;;;;;;5020635;28;20248;-77
2024/01/11 03:11:41;;;;;;;81.23;33.87;;;-3.00;99.90;;;;;;5022110;28;20856;-81
2024/01/11 03:14:11;;;;;;;76.23;31.13;;;-3.20;99.90;;;;;;5020545;28;20238;-82
2024/01/11 03:16:39;;;;;;;83.07;32.73;;;-3.10;99.90;;;;;;5030418;28;20918;-82
2024/01/11 03:19:08;;;;;;;87.23;33.33;;;-3.10;99.90;;;;;;5020795;28;20231;-81
2024/01/11 03:21:42;;;;;;;78.97;32.80;;;-3.00;99.90;;;;;;5023681;28;20834;-81
2024/01/11 03:24:10;;;;;;;94.03;34.50;;;-2.90;99.90;;;;;;5015867;28;20228;-81
2024/01/11 03:26:39;;;;;;;85.07;33.00;;;-2.90;99.90;;;;;;5018743;28;20237;-78
2024/01/11 03:29:08;;;;;;;84.23;33.47;;;-3.10;99.90;;;;;;5038508;28;20229;-79
2024/01/11 03:31:41;;;;;;;82.83;33.07;;;-2.90;99.90;;;;;;5015927;28;20839;-80
2024/01/11 03:34:10;;;;;;;88.23;34.83;;;-2.90;99.90;;;;;;5015195;28;20229;-78
2024/01/11 03:36:39;;;;;;;89.70;34.83;;;-2.80;99.90;;;;;;5022305;28;20240;-78
2024/01/11 03:39:07;;;;;;;89.20;33.50;;;-2.80;99.90;;;;;;5026100;28;20229;-77
2024/01/11 03:41:36;;;;;;;86.77;34.13;;;-3.00;99.90;;;;;;5018500;28;20231;-79
2024/01/11 03:44:04;;;;;;;82.17;33.50;;;-2.90;99.90;;;;;;5025063;28;20220;-80
2024/01/11 03:46:33;;;;;;;93.77;35.20;;;-2.90;99.90;;;;;;5024467;28;20241;-80
2024/01/11 03:49:03;;;;;;;93.03;35.60;;;-2.90;99.90;;;;;;5033520;28;20288;-80
2024/01/11 03:51:31;;;;;;;91.27;34.80;;;-3.00;99.90;;;;;;5021719;28;20257;-80
2024/01/11 03:54:00;;;;;;;86.37;36.23;;;-3.00;99.90;;;;;;5019347;28;20233;-81
2024/01/11 03:56:29;;;;;;;93.60;35.30;;;-2.90;99.90;;;;;;5021211;28;20695;-80
2024/01/11 03:58:57;;;;;;;93.20;35.73;;;-2.90;99.90;;;;;;5021801;28;20241;-81
2024/01/11 04:01:26;;;;;;;93.87;35.80;;;-2.90;99.90;;;;;;5009975;28;20232;-83
2024/01/11 04:03:54;;;;;;;91.00;35.57;;;-2.80;99.90;;;;;;5029343;28;20227;-84
2024/01/11 04:06:25;;;;;;;88.47;35.30;;;-2.80;99.90;;;;;;5027131;28;20242;-84
2024/01/11 04:08:54;;;;;;;97.10;35.77;;;-2.80;99.90;;;;;;5023210;28;20233;-84
2024/01/11 04:11:23;;;;;;;87.23;36.30;;;-2.80;99.90;;;;;;5041750;28;20225;-84
2024/01/11 04:13:51;;;;;;;90.77;37.03;;;-2.80;99.90;;;;;;5061982;28;20234;-78
2024/01/11 04:16:20;;;;;;;93.43;35.53;;;-2.80;99.90;;;;;;5023257;28;20745;-77
2024/01/11 04:18:48;;;;;;;90.53;35.80;;;-2.80;99.90;;;;;;5026656;28;20217;-76
2024/01/11 04:21:28;;;;;;;99.53;36.67;;;-2.70;99.90;;;;;;5022468;28;20237;-77
2024/01/11 04:23:57;;;;;;;102.37;37.37;;;-2.70;99.90;;;;;;5024226;28;20642;-78
2024/01/11 04:26:25;;;;;;;93.93;35.77;;;-2.70;99.90;;;;;;5020718;28;20217;-78
2024/01/11 04:28:54;;;;;;;97.30;36.63;;;-2.80;99.90;;;;;;5044368;28;20306;-78
2024/01/11 04:31:27;;;;;;;100.60;38.00;;;-2.80;99.90;;;;;;5033158;28;20228;-77
2024/01/11 04:33:56;;;;;;;94.63;36.67;;;-2.80;99.90;;;;;;5030809;28;20289;-77
2024/01/11 04:36:26;;;;;;;104.27;37.80;;;-2.90;99.90;;;;;;5021037;28;20233;-77
2024/01/11 04:38:55;;;;;;;98.53;35.60;;;-2.80;99.90;;;;;;5023488;28;20258;-76
2024/01/11 04:41:23;;;;;;;98.03;37.20;;;-2.80;99.90;;;;;;5029444;28;20756;-77
2024/01/11 04:43:52;;;;;;;91.37;35.47;;;-2.80;99.90;;;;;;5039994;28;20230;-77
2024/01/11 04:46:21;;;;;;;98.27;36.83;;;-2.80;99.90;;;;;;5041183;28;20235;-77
2024/01/11 04:48:51;;;;;;;90.97;35.53;;;-2.60;99.90;;;;;;5017402;28;20250;-76
2024/01/11 04:51:19;;;;;;;102.20;36.97;;;-2.70;99.90;;;;;;5021753;28;20312;-77
2024/01/11 04:53:49;;;;;;;97.93;36.43;;;-2.80;99.90;;;;;;5028544;28;20232;-76
2024/01/11 04:56:18;;;;;;;102.03;38.57;;;-3.00;99.90;;;;;;5018598;28;20230;-77
2024/01/11 04:58:47;;;;;;;100.03;37.13;;;-3.00;99.90;;;;;;5020397;28;20313;-75
2024/01/11 05:01:16;;;;;;;99.13;36.57;;;-2.90;99.90;;;;;;5011569;28;20221;-73
2024/01/11 05:03:45;;;;;;;98.63;34.13;;;-2.90;99.90;;;;;;5018722;28;20222;-75
2024/01/11 05:06:17;;;;;;;100.23;35.13;;;-2.90;99.90;;;;;;5019589;28;20309;-76
2024/01/11 05:08:46;;;;;;;98.80;36.10;;;-2.90;99.90;;;;;;5023931;28;20238;-74
2024/01/11 05:11:20;;;;;;;96.90;34.87;;;-2.90;99.90;;;;;;5053929;28;20339;-77
2024/01/11 05:13:49;;;;;;;95.73;36.70;;;-3.00;99.90;;;;;;5035951;28;20256;-78
2024/01/11 05:16:22;;;;;;;90.53;34.13;;;-3.00;99.90;;;;;;5036722;28;20223;-76
2024/01/11 05:18:51;;;;;;;87.63;33.50;;;-2.90;99.90;;;;;;5040532;28;20255;-77
2024/01/11 05:21:21;;;;;;;89.00;31.53;;;-3.00;99.90;;;;;;5026535;28;20221;-76
2024/01/11 05:23:50;;;;;;;84.17;31.07;;;-2.90;99.90;;;;;;5029076;28;20756;-78
2024/01/11 05:26:21;;;;;;;77.10;30.63;;;-3.00;99.90;;;;;;5028136;28;20221;-76
2024/01/11 05:28:50;;;;;;;75.93;29.73;;;-2.90;99.90;;;;;;5022243;28;20231;-77
2024/01/11 05:31:19;;;;;;;73.37;29.90;;;-2.90;99.90;;;;;;5017595;28;20231;-78
2024/01/11 05:33:48;;;;;;;66.37;28.50;;;-2.80;99.90;;;;;;5021945;28;20230;-78
2024/01/11 05:36:17;;;;;;;68.03;27.40;;;-2.90;99.90;;;;;;5034439;28;20220;-77
2024/01/11 05:38:46;;;;;;;71.63;28.60;;;-2.80;99.90;;;;;;5019693;28;20259;-78
2024/01/11 05:41:15;;;;;;;67.77;29.10;;;-2.80;99.90;;;;;;5050018;28;20321;-79
2024/01/11 05:43:45;;;;;;;81.47;30.17;;;-2.70;99.90;;;;;;5014762;28;20234;-78
2024/01/11 05:46:14;;;;;;;66.10;28.03;;;-2.50;99.90;;;;;;5023150;28;20814;-77
2024/01/11 05:48:43;;;;;;;67.17;28.27;;;-2.50;99.90;;;;;;5018347;28;20714;-77
2024/01/11 05:51:12;;;;;;;63.10;27.60;;;-2.50;99.90;;;;;;5036993;28;20227;-76
2024/01/11 05:53:40;;;;;;;75.27;28.43;;;-2.70;99.90;;;;;;5035861;28;20235;-77
2024/01/11 05:56:09;;;;;;;74.30;27.93;;;-2.50;99.90;;;;;;5018859;28;20235;-76
2024/01/11 05:58:40;;;;;;;67.70;27.13;;;-2.60;99.90;;;;;;5053852;28;20230;-74
2024/01/11 06:01:10;;;;;;;71.20;27.30;;;-2.70;99.90;;;;;;5017765;28;20223;-77
2024/01/11 06:03:39;;;;;;;67.00;27.17;;;-2.70;99.90;;;;;;5020089;28;20212;-77
2024/01/11 06:06:08;;;;;;;62.57;26.77;;;-2.70;99.90;;;;;;5028077;28;20649;-76
2024/01/11 06:08:37;;;;;;;66.73;26.47;;;-2.70;99.90;;;;;;5024826;28;20225;-76
2024/01/11 06:11:07;;;;;;;64.83;25.33;;;-2.60;99.90;;;;;;5023610;28;20280;-75
2024/01/11 06:13:36;;;;;;;63.43;26.10;;;-2.60;99.90;;;;;;5024788;28;20223;-75
2024/01/11 06:16:05;;;;;;;62.93;25.93;;;-2.60;99.90;;;;;;5033291;28;20305;-76
2024/01/11 06:18:37;;;;;;;60.90;24.43;;;-2.60;99.90;;;;;;5035068;28;20233;-77
2024/01/11 06:21:06;;;;;;;59.40;25.13;;;-2.70;99.90;;;;;;5012075;28;20229;-77
2024/01/11 06:23:34;;;;;;;59.40;24.00;;;-2.70;99.90;;;;;;5021121;28;20305;-74
2024/01/11 06:26:03;;;;;;;61.10;25.10;;;-2.60;99.90;;;;;;5034404;28;20231;-74
2024/01/11 06:28:31;;;;;;;64.00;25.90;;;-2.60;99.90;;;;;;5023345;28;20278;-72
2024/01/11 06:31:04;;;;;;;57.80;23.93;;;-2.60;99.90;;;;;;5032928;28;20325;-79
2024/01/11 06:33:36;;;;;;;58.77;23.50;;;-2.70;99.90;;;;;;5019396;28;20254;-73
2024/01/11 06:36:08;;;;;;;59.33;23.83;;;-2.60;99.90;;;;;;5019880;28;20234;-74
2024/01/11 06:38:36;;;;;;;54.23;22.80;;;-2.50;99.90;;;;;;5019260;28;20227;-74
2024/01/11 06:41:05;;;;;;;59.17;23.20;;;-2.50;99.90;;;;;;5016349;28;20929;-75
2024/01/11 06:43:34;;;;;;;52.10;21.90;;;-2.70;99.90;;;;;;5054372;28;20316;-74
2024/01/11 06:46:05;;;;;;;54.53;22.60;;;-2.70;99.90;;;;;;5022288;28;20226;-82
2024/01/11 06:48:34;;;;;;;52.20;23.37;;;-2.50;99.90;;;;;;5019266;28;20215;-78
2024/01/11 06:51:03;;;;;;;50.80;22.43;;;-2.40;99.90;;;;;;5017938;28;20262;-74
2024/01/11 06:53:33;;;;;;;50.20;21.33;;;-2.40;99.90;;;;;;5048140;28;20223;-77
2024/01/11 06:56:02;;;;;;;48.70;20.23;;;-2.30;99.90;;;;;;5023252;28;20233;-82
2024/01/11 06:58:30;;;;;;;49.63;21.90;;;-2.30;99.90;;;;;;5049959;28;20250;-85
2024/01/11 07:00:59;;;;;;;53.77;21.50;;;-2.20;99.90;;;;;;5025246;28;20230;-81
2024/01/11 07:03:27;;;;;;;49.20;20.57;;;-2.30;99.90;;;;;;5029389;28;20721;-82
2024/01/11 07:05:56;;;;;;;53.53;21.33;;;-2.20;99.90;;;;;;5017538;28;20236;-77
2024/01/11 07:08:25;;;;;;;53.30;21.40;;;-2.20;99.90;;;;;;5021735;28;20266;-77
2024/01/11 07:10:55;;;;;;;54.63;20.80;;;-2.20;99.90;;;;;;5018503;28;20294;-75
2024/01/11 07:13:24;;;;;;;47.93;20.50;;;-2.20;99.90;;;;;;5020746;28;20219;-73
2024/01/11 07:15:52;;;;;;;49.43;21.20;;;-2.20;99.90;;;;;;5016021;28;20313;-73
2024/01/11 07:18:21;;;;;;;57.33;23.40;;;-2.20;99.90;;;;;;5031533;28;20312;-74
2024/01/11 07:20:51;;;;;;;58.20;22.13;;;-2.00;99.90;;;;;;5018772;28;20944;-76
2024/01/11 07:23:20;;;;;;;51.43;22.10;;;-2.10;99.90;;;;;;5023807;28;20697;-76
2024/01/11 07:25:49;;;;;;;61.23;21.40;;;-2.10;99.90;;;;;;5020419;28;20253;-77
2024/01/11 07:28:19;;;;;;;57.87;22.63;;;-2.10;99.90;;;;;;5041754;28;20310;-81
2024/01/11 07:30:47;;;;;;;57.10;21.57;;;-2.10;99.90;;;;;;5039218;28;20703;-82
2024/01/11 07:33:16;;;;;;;51.07;21.53;;;-2.10;99.90;;;;;;5030127;28;20240;-83
2024/01/11 07:35:45;;;;;;;74.00;32.90;;;-2.10;99.90;;;;;;5029818;28;20343;-82
2024/01/11 07:38:14;;;;;;;55.50;21.23;;;-2.00;99.90;;;;;;5031024;28;20282;-82
2024/01/11 07:40:43;;;;;;;59.27;22.83;;;-1.90;99.90;;;;;;5027343;28;20309;-80
2024/01/11 07:43:13;;;;;;;52.60;21.13;;;-1.90;99.90;;;;;;5035468;28;20236;-80
2024/01/11 07:45:43;;;;;;;57.60;22.03;;;-1.80;99.90;;;;;;5017558;28;20240;-83
2024/01/11 07:48:13;;;;;;;58.20;19.83;;;-1.90;99.90;;;;;;5026976;28;20310;-81
2024/01/11 07:50:41;;;;;;;51.93;20.30;;;-1.90;99.90;;;;;;5022052;28;20255;-82
2024/01/11 07:53:10;;;;;;;52.13;20.93;;;-1.90;99.90;;;;;;5058823;28;20240;-81
2024/01/11 07:55:39;;;;;;;57.63;20.83;;;-1.90;99.90;;;;;;5021017;28;20227;-81
2024/01/11 07:58:08;;;;;;;55.93;20.70;;;-1.80;99.90;;;;;;5022340;28;20218;-81
2024/01/11 08:00:37;;;;;;;54.53;21.50;;;-1.80;99.90;;;;;;5030851;28;20367;-80
2024/01/11 08:03:08;;;;;;;55.90;20.83;;;-1.80;99.90;;;;;;5037372;28;20245;-81
2024/01/11 08:05:37;;;;;;;55.70;21.43;;;-1.80;99.90;;;;;;5051216;28;21083;-80
2024/01/11 08:08:06;;;;;;;52.87;20.87;;;-1.80;99.90;;;;;;5024721;28;20225;-80
2024/01/11 08:10:35;;;;;;;63.57;20.90;;;-1.70;99.90;;;;;;5025384;28;20228;-80
2024/01/11 08:13:04;;;;;;;71.23;21.97;;;-1.70;99.90;;;;;;5026225;28;20738;-80
2024/01/11 08:15:33;;;;;;;60.20;21.87;;;-1.80;99.90;;;;;;5015924;28;20225;-80
2024/01/11 08:18:01;;;;;;;57.20;21.67;;;-1.80;99.90;;;;;;5037055;28;20228;-80
2024/01/11 08:20:35;;;;;;;53.77;20.70;;;-1.80;99.90;;;;;;5021801;28;20692;-80
2024/01/11 08:23:03;;;;;;;57.90;20.73;;;-1.80;99.90;;;;;;5019666;28;20278;-81
2024/01/11 08:25:33;;;;;;;64.30;21.67;;;-1.90;99.90;;;;;;5024726;28;20254;-82
2024/01/11 08:28:02;;;;;;;55.20;20.20;;;-1.80;99.90;;;;;;5026126;28;20679;-81
2024/01/11 08:30:30;;;;;;;62.73;22.60;;;-1.80;99.90;;;;;;5025647;28;20297;-79
2024/01/11 08:32:59;;;;;;;57.27;21.27;;;-1.70;99.90;;;;;;5023575;28;20239;-80
2024/01/11 08:35:28;;;;;;;59.73;21.40;;;-1.70;99.90;;;;;;5043776;28;20252;-80
2024/01/11 08:37:58;;;;;;;59.00;21.87;;;-1.90;99.90;;;;;;5024184;28;20384;-81
2024/01/11 08:40:26;;;;;;;62.93;20.93;;;-1.80;99.90;;;;;;5021595;28;20310;-81
2024/01/11 08:42:55;;;;;;;60.23;21.20;;;-1.80;99.90;;;;;;5043051;28;20221;-80
2024/01/11 08:45:23;;;;;;;55.40;21.40;;;-1.60;99.90;;;;;;5026454;28;20230;-78
2024/01/11 08:47:52;;;;;;;63.00;23.33;;;-1.60;99.90;;;;;;5021959;28;20232;-81
2024/01/11 08:50:21;;;;;;;55.83;20.60;;;-1.50;99.90;;;;;;5028167;28;20210;-82
2024/01/11 08:52:55;;;;;;;60.27;21.93;;;-1.50;99.90;;;;;;5030411;28;20228;-81
2024/01/11 08:55:26;;;;;;;64.57;21.97;;;-1.50;99.90;;;;;;5025359;28;20290;-80
2024/01/11 08:57:54;;;;;;;61.87;21.47;;;-1.50;99.90;;;;;;5020105;28;20228;-80
2024/01/11 09:00:23;;;;;;;62.30;22.03;;;-1.70;99.90;;;;;;5024504;28;20418;-81
2024/01/11 09:02:51;;;;;;;63.27;21.93;;;-1.70;99.90;;;;;;5024195;28;20230;-81
2024/01/11 09:05:21;;;;;;;55.70;20.97;;;-1.70;99.90;;;;;;5049895;28;20277;-80
2024/01/11 09:07:48;;;;;;;58.10;20.73;;;-1.60;99.90;;;;;;5024735;28;20236;-81
2024/01/11 09:10:20;;;;;;;53.87;20.00;;;-1.60;99.90;;;;;;5024201;28;20266;-80
2024/01/11 09:12:50;;;;;;;50.33;20.23;;;-1.60;99.90;;;;;;5039886;28;20240;-80
2024/01/11 09:15:18;;;;;;;52.97;20.33;;;-1.60;99.90;;;;;;5038031;28;20263;-81
2024/01/11 09:17:47;;;;;;;48.63;19.33;;;-1.50;99.90;;;;;;5022183;28;20284;-81
2024/01/11 09:20:16;;;;;;;52.37;19.50;;;-1.50;99.90;;;;;;5026181;28;20245;-81
2024/01/11 09:22:45;;;;;;;62.23;25.77;;;-1.50;99.90;;;;;;5028516;28;20236;-81
2024/01/11 09:25:14;;;;;;;56.50;21.90;;;-1.30;99.90;;;;;;5038211;28;20237;-80
2024/01/11 09:27:42;;;;;;;50.67;19.63;;;-1.30;99.60;;;;;;5016169;28;20618;-81
2024/01/11 09:30:13;;;;;;;51.17;19.30;;;-1.20;99.70;;;;;;5032718;28;20308;-81
2024/01/11 09:32:42;;;;;;;48.17;18.77;;;-1.30;99.50;;;;;;5026301;28;20233;-80
2024/01/11 09:35:10;;;;;;;44.17;18.17;;;-1.20;99.10;;;;;;5012012;28;20229;-81
2024/01/11 09:37:45;;;;;;;46.93;19.73;;;-1.20;99.20;;;;;;5036403;28;20232;-81
2024/01/11 09:40:15;;;;;;;46.20;18.17;;;-1.20;98.80;;;;;;5022024;28;20230;-80
2024/01/11 09:42:44;;;;;;;44.90;20.03;;;-1.00;99.00;;;;;;5045380;28;20716;-81
2024/01/11 09:45:16;;;;;;;46.70;19.20;;;-1.00;98.40;;;;;;5019455;28;20222;-82
2024/01/11 09:47:46;;;;;;;46.57;19.27;;;-1.00;98.10;;;;;;5018878;28;20289;-81
2024/01/11 09:50:17;;;;;;;46.40;19.30;;;-1.00;97.70;;;;;;5031272;28;20645;-80
2024/01/11 09:52:48;;;;;;;61.80;24.80;;;-1.00;97.60;;;;;;5029468;28;20279;-81
2024/01/11 09:55:17;;;;;;;81.43;34.53;;;-0.90;97.90;;;;;;5028181;28;20226;-81
2024/01/11 09:57:47;;;;;;;105.70;47.37;;;-0.80;97.20;;;;;;5035800;28;20284;-80
2024/01/11 10:00:23;;;;;;;132.90;56.30;;;-0.70;97.00;;;;;;5019939;28;20237;-81
2024/01/11 10:02:52;;;;;;;151.00;64.40;;;-0.80;96.90;;;;;;5035875;28;20238;-80
2024/01/11 10:05:21;;;;;;;150.53;65.03;;;-0.80;96.90;;;;;;5026726;28;20324;-80
2024/01/11 10:07:50;;;;;;;149.23;64.23;;;-0.80;97.00;;;;;;5023843;28;20241;-81
2024/01/11 10:10:18;;;;;;;156.53;63.97;;;-0.90;97.60;;;;;;5030298;28;20256;-80
2024/01/11 10:12:49;;;;;;;151.00;61.60;;;-0.90;97.00;;;;;;5027079;28;20292;-80
2024/01/11 10:15:19;;;;;;;147.70;64.67;;;-0.80;97.30;;;;;;5048019;28;20313;-81
2024/01/11 10:17:48;;;;;;;138.93;60.03;;;-0.80;96.70;;;;;;5020141;28;20229;-80
2024/01/11 10:20:17;;;;;;;128.10;57.47;;;-0.80;97.00;;;;;;5026958;28;20317;-81
2024/01/11 10:22:48;;;;;;;115.93;54.00;;;-0.70;97.20;;;;;;5064320;28;20708;-80
2024/01/11 10:25:18;;;;;;;107.73;50.43;;;-0.70;97.00;;;;;;5041131;28;20236;-81
2024/01/11 10:27:46;;;;;;;101.00;49.53;;;-0.70;96.70;;;;;;5026858;28;20234;-82
2024/01/11 10:30:16;;;;;;;113.20;57.63;;;-0.70;96.90;;;;;;5020334;28;20342;-82
2024/01/11 10:32:48;;;;;;;151.17;76.77;;;-0.60;97.30;;;;;;5020065;28;20224;-81
2024/01/11 10:35:18;;;;;;;103.37;51.70;;;-0.60;99.50;;;;;;5024845;28;20269;-82
2024/01/11 10:37:53;;;;;;;113.13;52.67;;;-0.70;96.60;;;;;;5027354;28;20723;-80
2024/01/11 10:40:25;;;;;;;107.27;55.43;;;-0.70;96.70;;;;;;5038869;28;20237;-81
2024/01/11 10:42:54;;;;;;;124.30;59.53;;;-0.70;96.60;;;;;;5029829;28;20221;-80
2024/01/11 10:45:22;;;;;;;112.50;58.50;;;-0.60;96.60;;;;;;5022905;28;20720;-81
2024/01/11 10:47:57;;;;;;;114.03;58.80;;;-0.60;96.80;;;;;;5053831;28;20263;-80
2024/01/11 10:50:35;;;;;;;114.70;58.63;;;-0.40;96.50;;;;;;5039836;28;20275;-80
2024/01/11 10:53:09;;;;;;;105.27;56.13;;;-0.50;96.40;;;;;;5029276;28;20222;-82
2024/01/11 10:55:39;;;;;;;120.20;58.57;;;-0.50;96.20;;;;;;5020375;28;20229;-81
2024/01/11 10:58:11;;;;;;;119.93;58.33;;;-0.50;96.60;;;;;;5035437;28;20312;-81
2024/01/11 11:00:40;;;;;;;113.73;57.93;;;-0.50;96.70;;;;;;5036846;28;20234;-80
2024/01/11 11:03:12;;;;;;;119.90;58.90;;;-0.30;97.00;;;;;;5050862;28;20773;-81
2024/01/11 11:05:42;;;;;;;117.27;58.77;;;-0.40;96.40;;;;;;5018855;28;20264;-80
2024/01/11 11:08:12;;;;;;;122.80;60.87;;;-0.40;96.50;;;;;;5039337;28;20344;-81
2024/01/11 11:10:42;;;;;;;133.10;60.10;;;-0.40;96.60;;;;;;5022128;28;20333;-80
2024/01/11 11:13:13;;;;;;;121.50;57.20;;;-0.30;96.60;;;;;;5024258;28;20680;-80
2024/01/11 11:15:46;;;;;;;132.20;61.20;;;-0.30;96.70;;;;;;5022452;28;20790;-80
2024/01/11 11:18:17;;;;;;;124.40;60.60;;;-0.30;96.20;;;;;;5024761;28;20229;-80
2024/01/11 11:20:46;;;;;;;130.53;61.80;;;-0.30;96.80;;;;;;5024721;28;20230;-80
2024/01/11 11:23:17;;;;;;;140.37;65.57;;;-0.20;96.60;;;;;;5022014;28;20229;-80
2024/01/11 11:25:47;;;;;;;137.57;63.93;;;-0.40;96.50;;;;;;5032931;28;20288;-80
2024/01/11 11:28:17;;;;;;;138.40;66.67;;;-0.30;96.60;;;;;;5023883;28;20233;-81
2024/01/11 11:30:51;;;;;;;138.93;64.03;;;-0.30;96.50;;;;;;5027920;28;20247;-81
2024/01/11 11:33:24;;;;;;;138.47;63.77;;;-0.20;96.20;;;;;;5018051;28;20945;-80
2024/01/11 11:35:54;;;;;;;138.80;65.00;;;-0.30;96.60;;;;;;5020698;28;20305;-74
2024/01/11 11:38:25;;;;;;;137.93;65.20;;;-0.20;96.60;;;;;;5036361;28;20213;-80
2024/01/11 11:40:55;;;;;;;140.23;61.40;;;-0.20;96.80;;;;;;5026057;28;20766;-79
2024/01/11 11:43:24;;;;;;;122.73;54.83;;;-0.10;99.90;;;;;;5038749;28;20298;-79
2024/01/11 11:45:54;;;;;;;121.07;51.27;;;-0.30;96.00;;;;;;5018076;28;20213;-80
2024/01/11 11:48:56;;;;;;;118.47;50.87;;;-0.30;96.40;;;;;;5041161;28;20225;-80
2024/01/11 11:51:25;;;;;;;112.90;47.77;;;-0.30;97.00;;;;;;5018524;28;20315;-81
2024/01/11 11:53:57;;;;;;;119.30;49.30;;;-0.40;96.40;;;;;;5018606;28;20309;-80
2024/01/11 11:56:25;;;;;;;121.10;50.20;;;-0.30;96.50;;;;;;5026007;28;20311;-80
2024/01/11 11:58:54;;;;;;;123.50;51.13;;;-0.20;96.40;;;;;;5023392;28;20230;-80
2024/01/11 12:01:24;;;;;;;121.87;49.50;;;-0.20;96.60;;;;;;5018972;28;20233;-81
2024/01/11 12:03:55;;;;;;;122.03;49.50;;;-0.10;95.80;;;;;;5021147;28;20301;-80
2024/01/11 12:06:24;;;;;;;116.07;48.63;;;-0.10;96.00;;;;;;5022379;28;20700;-80
2024/01/11 12:08:55;;;;;;;121.00;48.93;;;-0.10;95.90;;;;;;5017751;28;20298;-80
2024/01/11 12:11:26;;;;;;;119.87;46.67;;;-0.10;95.70;;;;;;5037578;28;20320;-80
2024/01/11 12:13:57;;;;;;;114.93;45.90;;;0.00;95.50;;;;;;5038047;28;20226;-80
2024/01/11 12:16:27;;;;;;;112.27;43.37;;;-0.10;95.10;;;;;;5021661;28;20228;-80
2024/01/11 12:18:57;;;;;;;123.70;44.40;;;0.00;95.40;;;;;;5038607;28;20245;-80
2024/01/11 12:21:26;;;;;;;108.07;44.37;;;0.10;94.80;;;;;;5036205;28;20240;-81
2024/01/11 12:23:56;;;;;;;124.23;45.57;;;0.10;94.50;;;;;;5038561;28;20298;-81
2024/01/11 12:26:24;;;;;;;127.30;46.73;;;0.10;94.80;;;;;;5018637;28;20265;-82
2024/01/11 12:28:54;;;;;;;116.63;45.43;;;0.10;95.00;;;;;;5022242;28;20223;-80
2024/01/11 12:31:23;;;;;;;122.53;48.60;;;0.20;94.50;;;;;;5031284;28;20225;-81
2024/01/11 12:33:53;;;;;;;114.07;46.13;;;0.00;94.40;;;;;;5038461;28;20225;-83